sensor_id;sensor_type;location;lat;lon;timestamp;pressure;altitude;pressure_sealevel;temperature;humidity
28267;BME280;15525;45.568;5.448;2023-05-09T00:01:12;98332.38;;;18.84;60.50
28267;BME280;15525;45.568;5.448;2023-05-09T00:03:38;98318.00;;;18.84;60.16
28267;BME280;15525;45.568;5.448;2023-05-09T00:06:04;98323.78;;;18.91;60.13
28267;BME280;15525;45.568;5.448;2023-05-09T00:08:31;98330.13;;;18.78;60.27
28267;BME280;15525;45.568;5.448;2023-05-09T00:10:56;98335.72;;;18.81;60.33
28267;BME280;15525;45.568;5.448;2023-05-09T00:13:22;98320.88;;;18.70;60.48
28267;BME280;15525;45.568;5.448;2023-05-09T00:15:48;98343.69;;;18.78;60.66
28267;BME280;15525;45.568;5.448;2023-05-09T00:18:14;98309.63;;;18.55;60.47
28267;BME280;15525;45.568;5.448;2023-05-09T00:20:39;98339.88;;;18.79;60.94
28267;BME280;15525;45.568;5.448;2023-05-09T00:23:05;98332.03;;;18.77;60.51
28267;BME280;15525;45.568;5.448;2023-05-09T00:25:31;98320.91;;;18.87;60.03
28267;BME280;15525;45.568;5.448;2023-05-09T00:27:57;98347.91;;;19.09;59.94
28267;BME280;15525;45.568;5.448;2023-05-09T00:30:23;98328.75;;;19.06;59.91
28267;BME280;15525;45.568;5.448;2023-05-09T00:32:48;98312.00;;;19.04;59.54
28267;BME280;15525;45.568;5.448;2023-05-09T00:35:13;98321.44;;;19.15;59.69
28267;BME280;15525;45.568;5.448;2023-05-09T00:37:39;98306.91;;;19.02;59.74
28267;BME280;15525;45.568;5.448;2023-05-09T00:40:05;98300.16;;;18.83;59.87
28267;BME280;15525;45.568;5.448;2023-05-09T00:42:32;98286.72;;;18.69;60.43
28267;BME280;15525;45.568;5.448;2023-05-09T00:44:58;98299.63;;;18.72;60.38
28267;BME280;15525;45.568;5.448;2023-05-09T00:47:26;98295.97;;;18.68;60.46
28267;BME280;15525;45.568;5.448;2023-05-09T00:49:52;98320.72;;;18.75;60.49
28267;BME280;15525;45.568;5.448;2023-05-09T00:52:18;98291.50;;;18.64;60.69
28267;BME280;15525;45.568;5.448;2023-05-09T00:54:51;98286.06;;;18.64;60.70
28267;BME280;15525;45.568;5.448;2023-05-09T00:57:17;98290.19;;;18.61;60.65
28267;BME280;15525;45.568;5.448;2023-05-09T00:59:43;98289.75;;;18.68;60.31
28267;BME280;15525;45.568;5.448;2023-05-09T01:02:08;98268.50;;;18.61;60.56
28267;BME280;15525;45.568;5.448;2023-05-09T01:04:34;98290.41;;;18.82;60.50
28267;BME280;15525;45.568;5.448;2023-05-09T01:07:25;98309.44;;;18.99;60.06
28267;BME280;15525;45.568;5.448;2023-05-09T01:12:48;98264.09;;;18.82;59.83
28267;BME280;15525;45.568;5.448;2023-05-09T01:15:58;98300.19;;;19.08;59.35
28267;BME280;15525;45.568;5.448;2023-05-09T01:18:33;98270.81;;;18.93;59.61
28267;BME280;15525;45.568;5.448;2023-05-09T01:21:07;98287.25;;;18.97;59.63
28267;BME280;15525;45.568;5.448;2023-05-09T01:26:43;98285.81;;;18.82;60.14
28267;BME280;15525;45.568;5.448;2023-05-09T01:29:35;98286.75;;;18.86;59.52
28267;BME280;15525;45.568;5.448;2023-05-09T01:32:05;98286.75;;;18.86;59.55
28267;BME280;15525;45.568;5.448;2023-05-09T01:34:32;98271.09;;;18.75;59.60
28267;BME280;15525;45.568;5.448;2023-05-09T01:37:00;98251.94;;;18.63;59.90
28267;BME280;15525;45.568;5.448;2023-05-09T01:39:29;98270.25;;;18.66;59.81
28267;BME280;15525;45.568;5.448;2023-05-09T01:42:00;98267.38;;;18.62;59.91
28267;BME280;15525;45.568;5.448;2023-05-09T01:44:31;98265.63;;;18.58;59.79
28267;BME280;15525;45.568;5.448;2023-05-09T01:46:58;98256.84;;;18.52;60.11
28267;BME280;15525;45.568;5.448;2023-05-09T01:49:25;98250.50;;;18.57;60.31
28267;BME280;15525;45.568;5.448;2023-05-09T01:51:53;98246.16;;;18.56;59.91
28267;BME280;15525;45.568;5.448;2023-05-09T01:54:21;98244.41;;;18.51;60.22
28267;BME280;15525;45.568;5.448;2023-05-09T01:56:50;98258.88;;;18.47;60.23
28267;BME280;15525;45.568;5.448;2023-05-09T01:59:16;98252.34;;;18.39;60.33
28267;BME280;15525;45.568;5.448;2023-05-09T02:01:43;98268.31;;;18.49;60.25
28267;BME280;15525;45.568;5.448;2023-05-09T02:04:09;98254.06;;;18.35;60.38
28267;BME280;15525;45.568;5.448;2023-05-09T02:06:35;98253.84;;;18.23;60.57
28267;BME280;15525;45.568;5.448;2023-05-09T02:09:01;98242.97;;;18.15;60.65
28267;BME280;15525;45.568;5.448;2023-05-09T02:11:27;98239.47;;;18.14;60.62
28267;BME280;15525;45.568;5.448;2023-05-09T02:13:52;98213.09;;;17.98;60.66
28267;BME280;15525;45.568;5.448;2023-05-09T02:16:18;98248.66;;;18.05;60.75
28267;BME280;15525;45.568;5.448;2023-05-09T02:18:43;98236.19;;;17.95;61.05
28267;BME280;15525;45.568;5.448;2023-05-09T02:21:09;98274.38;;;18.16;60.92
28267;BME280;15525;45.568;5.448;2023-05-09T02:23:35;98259.34;;;18.10;60.77
28267;BME280;15525;45.568;5.448;2023-05-09T02:26:01;98234.00;;;18.06;60.45
28267;BME280;15525;45.568;5.448;2023-05-09T02:28:28;98251.38;;;18.05;60.69
28267;BME280;15525;45.568;5.448;2023-05-09T02:30:56;98278.03;;;18.11;60.94
28267;BME280;15525;45.568;5.448;2023-05-09T02:33:23;98265.00;;;17.91;60.99
28267;BME280;15525;45.568;5.448;2023-05-09T02:35:49;98278.28;;;18.01;60.99
28267;BME280;15525;45.568;5.448;2023-05-09T02:38:15;98247.94;;;17.91;61.13
28267;BME280;15525;45.568;5.448;2023-05-09T02:40:42;98251.50;;;18.00;60.73
28267;BME280;15525;45.568;5.448;2023-05-09T02:43:08;98253.53;;;17.94;60.98
28267;BME280;15525;45.568;5.448;2023-05-09T02:45:34;98256.44;;;17.98;61.05
28267;BME280;15525;45.568;5.448;2023-05-09T02:47:59;98248.47;;;17.93;60.90
28267;BME280;15525;45.568;5.448;2023-05-09T02:50:25;98235.03;;;17.88;60.87
28267;BME280;15525;45.568;5.448;2023-05-09T02:52:51;98258.06;;;18.07;60.75
28267;BME280;15525;45.568;5.448;2023-05-09T02:55:16;98233.97;;;17.97;60.56
28267;BME280;15525;45.568;5.448;2023-05-09T02:57:41;98252.03;;;18.10;60.86
28267;BME280;15525;45.568;5.448;2023-05-09T03:00:07;98271.09;;;18.27;60.50
28267;BME280;15525;45.568;5.448;2023-05-09T03:02:36;98253.66;;;18.20;60.51
28267;BME280;15525;45.568;5.448;2023-05-09T03:05:02;98263.44;;;18.29;60.57
28267;BME280;15525;45.568;5.448;2023-05-09T03:07:28;98238.97;;;18.12;60.47
28267;BME280;15525;45.568;5.448;2023-05-09T03:09:54;98253.94;;;18.10;60.72
28267;BME280;15525;45.568;5.448;2023-05-09T03:12:19;98259.72;;;18.17;60.61
28267;BME280;15525;45.568;5.448;2023-05-09T03:14:45;98245.16;;;18.04;60.73
28267;BME280;15525;45.568;5.448;2023-05-09T03:17:10;98246.78;;;18.14;60.63
28267;BME280;15525;45.568;5.448;2023-05-09T03:19:36;98238.94;;;18.04;60.47
28267;BME280;15525;45.568;5.448;2023-05-09T03:22:01;98247.38;;;18.02;60.70
28267;BME280;15525;45.568;5.448;2023-05-09T03:24:27;98254.38;;;18.03;60.89
28267;BME280;15525;45.568;5.448;2023-05-09T03:26:53;98238.94;;;18.04;60.61
28267;BME280;15525;45.568;5.448;2023-05-09T03:29:18;98240.84;;;18.03;60.74
28267;BME280;15525;45.568;5.448;2023-05-09T03:31:44;98250.63;;;18.13;60.96
28267;BME280;15525;45.568;5.448;2023-05-09T03:34:10;98261.94;;;18.15;61.04
28267;BME280;15525;45.568;5.448;2023-05-09T03:36:42;98266.56;;;18.14;60.86
28267;BME280;15525;45.568;5.448;2023-05-09T03:39:08;98236.94;;;17.87;61.36
28267;BME280;15525;45.568;5.448;2023-05-09T03:41:34;98274.06;;;18.17;60.97
28267;BME280;15525;45.568;5.448;2023-05-09T03:44:00;98258.88;;;18.08;60.84
28267;BME280;15525;45.568;5.448;2023-05-09T03:46:26;98247.38;;;18.02;60.89
28267;BME280;15525;45.568;5.448;2023-05-09T03:48:51;98246.63;;;18.10;60.75
28267;BME280;15525;45.568;5.448;2023-05-09T03:51:17;98225.84;;;17.97;60.69
28267;BME280;15525;45.568;5.448;2023-05-09T03:53:44;98242.47;;;18.13;60.58
28267;BME280;15525;45.568;5.448;2023-05-09T03:56:11;98239.94;;;18.16;60.62
28267;BME280;15525;45.568;5.448;2023-05-09T03:58:36;98231.94;;;18.11;60.27
28267;BME280;15525;45.568;5.448;2023-05-09T04:01:01;98234.06;;;18.14;60.75
28267;BME280;15525;45.568;5.448;2023-05-09T04:03:27;98231.34;;;18.14;60.55
28267;BME280;15525;45.568;5.448;2023-05-09T04:05:53;98202.28;;;18.06;60.29
28267;BME280;15525;45.568;5.448;2023-05-09T04:08:18;98227.50;;;18.15;60.30
28267;BME280;15525;45.568;5.448;2023-05-09T04:10:44;98237.91;;;18.22;60.60
28267;BME280;15525;45.568;5.448;2023-05-09T04:13:09;98221.94;;;18.12;60.69
28267;BME280;15525;45.568;5.448;2023-05-09T04:15:35;98226.53;;;18.11;60.91
28267;BME280;15525;45.568;5.448;2023-05-09T04:18:00;98225.09;;;18.05;61.25
28267;BME280;15525;45.568;5.448;2023-05-09T04:20:26;98214.38;;;18.00;60.92
28267;BME280;15525;45.568;5.448;2023-05-09T04:22:52;98215.16;;;18.01;61.27
28267;BME280;15525;45.568;5.448;2023-05-09T04:25:17;98225.09;;;18.05;60.86
28267;BME280;15525;45.568;5.448;2023-05-09T04:27:44;98218.41;;;18.11;60.90
28267;BME280;15525;45.568;5.448;2023-05-09T04:30:10;98217.13;;;18.09;60.86
28267;BME280;15525;45.568;5.448;2023-05-09T04:32:36;98219.22;;;18.12;60.90
28267;BME280;15525;45.568;5.448;2023-05-09T04:35:01;98234.38;;;18.21;60.77
28267;BME280;15525;45.568;5.448;2023-05-09T04:37:28;98225.78;;;18.19;60.98
28267;BME280;15525;45.568;5.448;2023-05-09T04:39:53;98211.22;;;18.07;60.85
28267;BME280;15525;45.568;5.448;2023-05-09T04:42:19;98202.16;;;18.11;61.08
28267;BME280;15525;45.568;5.448;2023-05-09T04:44:45;98218.13;;;18.21;61.01
28267;BME280;15525;45.568;5.448;2023-05-09T04:47:10;98202.16;;;18.11;61.25
28267;BME280;15525;45.568;5.448;2023-05-09T04:49:36;98201.31;;;18.02;61.35
28267;BME280;15525;45.568;5.448;2023-05-09T04:52:01;98234.75;;;18.28;61.34
28267;BME280;15525;45.568;5.448;2023-05-09T04:54:26;98231.09;;;18.33;61.18
28267;BME280;15525;45.568;5.448;2023-05-09T04:56:52;98215.56;;;18.16;61.26
28267;BME280;15525;45.568;5.448;2023-05-09T04:59:17;98201.22;;;18.16;61.14
28267;BME280;15525;45.568;5.448;2023-05-09T05:01:43;98202.63;;;18.13;61.48
28267;BME280;15525;45.568;5.448;2023-05-09T05:04:08;98200.72;;;18.05;61.73
28267;BME280;15525;45.568;5.448;2023-05-09T05:06:34;98221.97;;;18.29;61.52
28267;BME280;15525;45.568;5.448;2023-05-09T05:08:59;98201.41;;;18.28;61.06
28267;BME280;15525;45.568;5.448;2023-05-09T05:11:25;98209.28;;;18.38;60.96
28267;BME280;15525;45.568;5.448;2023-05-09T05:13:50;98194.69;;;18.25;61.08
28267;BME280;15525;45.568;5.448;2023-05-09T05:16:16;98200.13;;;18.25;61.27
28267;BME280;15525;45.568;5.448;2023-05-09T05:18:41;98209.41;;;18.33;61.04
28267;BME280;15525;45.568;5.448;2023-05-09T05:21:06;98197.16;;;18.35;61.32
28267;BME280;15525;45.568;5.448;2023-05-09T05:23:32;98204.19;;;18.36;61.18
28267;BME280;15525;45.568;5.448;2023-05-09T05:25:58;98211.56;;;18.53;61.08
28267;BME280;15525;45.568;5.448;2023-05-09T05:28:23;98219.22;;;18.59;60.80
28267;BME280;15525;45.568;5.448;2023-05-09T05:30:48;98215.56;;;18.72;60.74
28267;BME280;15525;45.568;5.448;2023-05-09T05:33:14;98216.22;;;18.69;60.74
28267;BME280;15525;45.568;5.448;2023-05-09T05:35:40;98217.81;;;18.79;60.63
28267;BME280;15525;45.568;5.448;2023-05-09T05:38:05;98221.34;;;18.96;60.36
28267;BME280;15525;45.568;5.448;2023-05-09T05:40:30;98214.78;;;19.06;60.30
28267;BME280;15525;45.568;5.448;2023-05-09T05:42:56;98212.06;;;19.06;60.10
28267;BME280;15525;45.568;5.448;2023-05-09T05:45:21;98211.44;;;19.17;59.83
28267;BME280;15525;45.568;5.448;2023-05-09T05:47:47;98214.00;;;19.39;59.78
28267;BME280;15525;45.568;5.448;2023-05-09T05:50:12;98216.53;;;19.61;59.19
28267;BME280;15525;45.568;5.448;2023-05-09T05:52:38;98211.38;;;19.77;59.05
28267;BME280;15525;45.568;5.448;2023-05-09T05:55:04;98190.63;;;19.64;58.94
28267;BME280;15525;45.568;5.448;2023-05-09T05:57:30;98213.31;;;19.68;59.26
28267;BME280;15525;45.568;5.448;2023-05-09T05:59:56;98198.75;;;19.72;59.24
28267;BME280;15525;45.568;5.448;2023-05-09T06:02:21;98205.88;;;19.94;58.81
28267;BME280;15525;45.568;5.448;2023-05-09T06:04:47;98194.97;;;20.02;58.67
28267;BME280;15525;45.568;5.448;2023-05-09T06:07:12;98192.50;;;20.26;58.49
28267;BME280;15525;45.568;5.448;2023-05-09T06:09:38;98173.13;;;20.28;58.01
28267;BME280;15525;45.568;5.448;2023-05-09T06:12:04;98194.00;;;20.44;57.88
28267;BME280;15525;45.568;5.448;2023-05-09T06:14:30;98157.06;;;20.43;57.86
28267;BME280;15525;45.568;5.448;2023-05-09T06:16:55;98167.59;;;20.45;58.08
28267;BME280;15525;45.568;5.448;2023-05-09T06:19:21;98156.56;;;20.41;58.01
28267;BME280;15525;45.568;5.448;2023-05-09T06:21:46;98160.16;;;20.33;57.85
28267;BME280;15525;45.568;5.448;2023-05-09T06:24:12;98159.91;;;20.47;58.02
28267;BME280;15525;45.568;5.448;2023-05-09T06:26:37;98158.56;;;20.53;58.00
28267;BME280;15525;45.568;5.448;2023-05-09T06:29:03;98162.44;;;20.72;57.50
28267;BME280;15525;45.568;5.448;2023-05-09T06:31:30;98161.81;;;20.96;57.35
28267;BME280;15525;45.568;5.448;2023-05-09T06:33:56;98159.66;;;21.02;56.81
28267;BME280;15525;45.568;5.448;2023-05-09T06:36:21;98154.38;;;21.05;56.94
28267;BME280;15525;45.568;5.448;2023-05-09T06:38:47;98140.53;;;20.89;56.87
28267;BME280;15525;45.568;5.448;2023-05-09T06:41:12;98139.84;;;21.01;56.71
28267;BME280;15525;45.568;5.448;2023-05-09T06:43:37;98143.66;;;21.21;56.54
28267;BME280;15525;45.568;5.448;2023-05-09T06:46:03;98140.09;;;21.41;56.05
28267;BME280;15525;45.568;5.448;2023-05-09T06:48:28;98128.38;;;21.40;55.56
28267;BME280;15525;45.568;5.448;2023-05-09T06:50:53;98130.66;;;21.38;55.89
28267;BME280;15525;45.568;5.448;2023-05-09T06:53:19;98128.94;;;21.34;55.70
28267;BME280;15525;45.568;5.448;2023-05-09T06:55:44;98116.28;;;21.50;55.39
28267;BME280;15525;45.568;5.448;2023-05-09T06:58:10;98104.31;;;21.87;54.53
28267;BME280;15525;45.568;5.448;2023-05-09T07:00:36;98094.53;;;21.98;54.07
28267;BME280;15525;45.568;5.448;2023-05-09T07:03:01;98105.91;;;22.00;53.59
28267;BME280;15525;45.568;5.448;2023-05-09T07:05:27;98105.09;;;21.99;53.97
28267;BME280;15525;45.568;5.448;2023-05-09T07:07:52;98106.09;;;22.07;53.78
28267;BME280;15525;45.568;5.448;2023-05-09T07:10:21;98118.59;;;22.32;53.72
28267;BME280;15525;45.568;5.448;2023-05-09T07:12:46;98107.00;;;22.47;53.32
28267;BME280;15525;45.568;5.448;2023-05-09T07:15:12;98112.78;;;22.57;53.28
28267;BME280;15525;45.568;5.448;2023-05-09T07:17:38;98092.63;;;22.62;53.12
28267;BME280;15525;45.568;5.448;2023-05-09T07:20:03;98081.19;;;22.56;53.14
28267;BME280;15525;45.568;5.448;2023-05-09T07:22:29;98082.03;;;22.72;52.92
28267;BME280;15525;45.568;5.448;2023-05-09T07:24:55;98089.50;;;22.87;52.83
28267;BME280;15525;45.568;5.448;2023-05-09T07:27:20;98079.16;;;23.08;52.33
28267;BME280;15525;45.568;5.448;2023-05-09T07:29:46;98068.41;;;23.15;52.14
28267;BME280;15525;45.568;5.448;2023-05-09T07:32:13;98057.09;;;23.29;51.80
28267;BME280;15525;45.568;5.448;2023-05-09T07:34:38;98066.19;;;23.33;52.21
28267;BME280;15525;45.568;5.448;2023-05-09T07:37:04;98051.28;;;23.46;52.01
28267;BME280;15525;45.568;5.448;2023-05-09T07:39:29;98048.75;;;23.37;52.42
28267;BME280;15525;45.568;5.448;2023-05-09T07:41:55;98051.38;;;23.49;52.19
28267;BME280;15525;45.568;5.448;2023-05-09T07:44:20;98029.69;;;23.56;51.70
28267;BME280;15525;45.568;5.448;2023-05-09T07:46:46;98041.38;;;23.88;51.32
28267;BME280;15525;45.568;5.448;2023-05-09T07:49:11;98045.84;;;23.92;51.50
28267;BME280;15525;45.568;5.448;2023-05-09T07:51:36;98028.84;;;24.18;50.92
28267;BME280;15525;45.568;5.448;2023-05-09T07:54:02;98035.91;;;24.38;50.46
28267;BME280;15525;45.568;5.448;2023-05-09T07:56:27;98025.38;;;24.40;50.31
28267;BME280;15525;45.568;5.448;2023-05-09T07:58:53;98025.06;;;24.60;49.94
28267;BME280;15525;45.568;5.448;2023-05-09T08:01:18;98018.22;;;24.70;49.75
28267;BME280;15525;45.568;5.448;2023-05-09T08:03:44;98003.72;;;24.88;49.57
28267;BME280;15525;45.568;5.448;2023-05-09T08:06:09;98018.06;;;25.23;49.10
28267;BME280;15525;45.568;5.448;2023-05-09T08:08:34;98008.44;;;25.29;49.02
28267;BME280;15525;45.568;5.448;2023-05-09T08:11:00;97992.06;;;25.14;49.09
28267;BME280;15525;45.568;5.448;2023-05-09T08:13:25;97993.56;;;25.30;48.73
28267;BME280;15525;45.568;5.448;2023-05-09T08:15:51;97992.94;;;25.40;48.56
28267;BME280;15525;45.568;5.448;2023-05-09T08:18:16;97971.31;;;25.35;48.29
28267;BME280;15525;45.568;5.448;2023-05-09T08:20:41;97990.06;;;25.33;48.35
28267;BME280;15525;45.568;5.448;2023-05-09T08:23:07;97979.09;;;25.11;48.72
28267;BME280;15525;45.568;5.448;2023-05-09T08:25:33;97992.38;;;25.09;48.45
28267;BME280;15525;45.568;5.448;2023-05-09T08:27:58;97983.09;;;25.17;48.23
28267;BME280;15525;45.568;5.448;2023-05-09T08:30:24;97963.38;;;25.53;47.26
28267;BME280;15525;45.568;5.448;2023-05-09T08:32:49;97993.97;;;25.81;47.15
28267;BME280;15525;45.568;5.448;2023-05-09T08:35:15;97980.13;;;25.96;46.69
28267;BME280;15525;45.568;5.448;2023-05-09T08:37:40;97978.13;;;26.23;46.33
28267;BME280;15525;45.568;5.448;2023-05-09T08:40:06;97987.81;;;26.43;46.25
28267;BME280;15525;45.568;5.448;2023-05-09T08:42:33;97978.03;;;26.45;46.21
28267;BME280;15525;45.568;5.448;2023-05-09T08:45:01;97949.31;;;26.69;45.82
28267;BME280;15525;45.568;5.448;2023-05-09T08:47:33;97964.03;;;27.27;45.06
28267;BME280;15525;45.568;5.448;2023-05-09T08:50:01;97971.41;;;27.63;45.12
28267;BME280;15525;45.568;5.448;2023-05-09T08:52:30;97955.59;;;27.49;44.41
28267;BME280;15525;45.568;5.448;2023-05-09T08:54:56;97955.91;;;27.01;45.37
28267;BME280;15525;45.568;5.448;2023-05-09T08:57:22;97942.34;;;26.82;46.02
28267;BME280;15525;45.568;5.448;2023-05-09T08:59:48;97926.84;;;27.00;45.43
28267;BME280;15525;45.568;5.448;2023-05-09T09:02:13;97914.50;;;27.20;44.92
28267;BME280;15525;45.568;5.448;2023-05-09T09:04:39;97913.09;;;27.43;44.65
28267;BME280;15525;45.568;5.448;2023-05-09T09:07:05;97929.94;;;27.38;44.85
28267;BME280;15525;45.568;5.448;2023-05-09T09:09:36;97911.22;;;26.67;45.00
28267;BME280;15525;45.568;5.448;2023-05-09T09:12:05;97908.72;;;26.22;46.22
28267;BME280;15525;45.568;5.448;2023-05-09T09:14:36;97902.81;;;26.93;44.77
28267;BME280;15525;45.568;5.448;2023-05-09T09:17:04;97921.84;;;26.69;45.30
28267;BME280;15525;45.568;5.448;2023-05-09T09:19:32;97919.47;;;26.67;45.50
28267;BME280;15525;45.568;5.448;2023-05-09T09:21:58;97896.94;;;26.95;45.07
28267;BME280;15525;45.568;5.448;2023-05-09T09:24:24;97890.00;;;27.08;44.67
28267;BME280;15525;45.568;5.448;2023-05-09T09:26:50;97897.88;;;27.09;44.32
28267;BME280;15525;45.568;5.448;2023-05-09T09:29:17;97899.94;;;27.77;43.88
28267;BME280;15525;45.568;5.448;2023-05-09T09:31:51;97882.63;;;27.73;42.45
28267;BME280;15525;45.568;5.448;2023-05-09T09:34:20;97889.59;;;27.53;42.66
28267;BME280;15525;45.568;5.448;2023-05-09T09:36:47;97873.16;;;27.67;42.18
28267;BME280;15525;45.568;5.448;2023-05-09T09:39:13;97872.56;;;27.98;42.21
28267;BME280;15525;45.568;5.448;2023-05-09T09:41:39;97879.06;;;28.51;41.36
28267;BME280;15525;45.568;5.448;2023-05-09T09:44:09;97862.63;;;29.04;41.00
28267;BME280;15525;45.568;5.448;2023-05-09T09:46:54;97867.31;;;29.45;40.47
28267;BME280;15525;45.568;5.448;2023-05-09T09:49:21;97875.13;;;29.82;41.10
28267;BME280;15525;45.568;5.448;2023-05-09T09:51:52;97867.25;;;29.87;39.86
28267;BME280;15525;45.568;5.448;2023-05-09T09:54:18;97860.63;;;28.90;41.38
28267;BME280;15525;45.568;5.448;2023-05-09T09:56:45;97854.59;;;28.32;42.33
28267;BME280;15525;45.568;5.448;2023-05-09T09:59:13;97854.97;;;28.27;42.94
28267;BME280;15525;45.568;5.448;2023-05-09T10:02:03;97842.88;;;28.67;41.59
28267;BME280;15525;45.568;5.448;2023-05-09T10:04:30;97851.56;;;28.69;41.68
28267;BME280;15525;45.568;5.448;2023-05-09T10:09:23;97848.31;;;28.35;41.09
28267;BME280;15525;45.568;5.448;2023-05-09T10:11:49;97847.22;;;28.57;41.45
28267;BME280;15525;45.568;5.448;2023-05-09T10:14:21;97829.94;;;29.16;39.18
28267;BME280;15525;45.568;5.448;2023-05-09T10:16:48;97841.28;;;29.46;39.67
28267;BME280;15525;45.568;5.448;2023-05-09T10:19:16;97829.94;;;29.20;38.57
28267;BME280;15525;45.568;5.448;2023-05-09T10:21:43;97824.38;;;28.53;40.12
28267;BME280;15525;45.568;5.448;2023-05-09T10:24:10;97823.00;;;27.94;40.72
28267;BME280;15525;45.568;5.448;2023-05-09T10:26:37;97815.91;;;27.86;41.27
28267;BME280;15525;45.568;5.448;2023-05-09T10:29:07;97834.84;;;28.05;40.67
28267;BME280;15525;45.568;5.448;2023-05-09T10:31:36;97820.16;;;27.77;40.38
28267;BME280;15525;45.568;5.448;2023-05-09T10:34:08;97832.72;;;27.78;39.50
28267;BME280;15525;45.568;5.448;2023-05-09T10:36:34;97806.19;;;27.38;40.28
28267;BME280;15525;45.568;5.448;2023-05-09T10:39:01;97801.50;;;27.46;40.09
28267;BME280;15525;45.568;5.448;2023-05-09T10:41:26;97792.56;;;27.66;39.63
28267;BME280;15525;45.568;5.448;2023-05-09T10:43:55;97811.63;;;28.06;38.47
28267;BME280;15525;45.568;5.448;2023-05-09T10:46:22;97784.03;;;27.82;38.95
28267;BME280;15525;45.568;5.448;2023-05-09T10:48:48;97800.63;;;27.99;39.08
28267;BME280;15525;45.568;5.448;2023-05-09T10:51:14;97810.44;;;27.25;40.36
28267;BME280;15525;45.568;5.448;2023-05-09T10:53:46;97795.88;;;26.71;42.01
28267;BME280;15525;45.568;5.448;2023-05-09T10:56:32;97798.47;;;27.04;40.95
28267;BME280;15525;45.568;5.448;2023-05-09T10:58:58;97810.31;;;26.61;41.96
28267;BME280;15525;45.568;5.448;2023-05-09T11:01:35;97781.91;;;26.50;42.00
28267;BME280;15525;45.568;5.448;2023-05-09T11:12:00;97792.91;;;26.93;41.99
28267;BME280;15525;45.568;5.448;2023-05-09T11:14:46;97773.63;;;26.43;42.44
28267;BME280;15525;45.568;5.448;2023-05-09T11:22:19;97797.31;;;27.05;42.10
28267;BME280;15525;45.568;5.448;2023-05-09T11:24:51;97785.53;;;27.04;41.22
28267;BME280;15525;45.568;5.448;2023-05-09T11:27:19;97770.59;;;27.02;41.30
28267;BME280;15525;45.568;5.448;2023-05-09T11:29:49;97793.47;;;26.26;40.97
28267;BME280;15525;45.568;5.448;2023-05-09T11:32:16;97780.28;;;26.02;41.42
28267;BME280;15525;45.568;5.448;2023-05-09T11:34:43;97817.84;;;25.94;41.84
28267;BME280;15525;45.568;5.448;2023-05-09T11:37:10;97799.53;;;26.05;42.17
28267;BME280;15525;45.568;5.448;2023-05-09T11:39:54;97805.94;;;26.16;42.09
28267;BME280;15525;45.568;5.448;2023-05-09T11:42:22;97785.94;;;26.19;42.11
28267;BME280;15525;45.568;5.448;2023-05-09T11:44:47;97780.41;;;26.12;42.21
28267;BME280;15525;45.568;5.448;2023-05-09T11:47:13;97804.97;;;26.02;42.55
28267;BME280;15525;45.568;5.448;2023-05-09T11:49:42;97791.25;;;25.69;42.91
28267;BME280;15525;45.568;5.448;2023-05-09T11:52:08;97797.97;;;25.45;42.79
28267;BME280;15525;45.568;5.448;2023-05-09T11:54:37;97801.19;;;25.51;41.99
28267;BME280;15525;45.568;5.448;2023-05-09T11:57:03;97798.16;;;25.59;42.21
28267;BME280;15525;45.568;5.448;2023-05-09T11:59:29;97799.81;;;25.64;41.91
28267;BME280;15525;45.568;5.448;2023-05-09T12:01:55;97791.38;;;25.50;41.70
28267;BME280;15525;45.568;5.448;2023-05-09T12:04:21;97816.50;;;25.55;41.98
28267;BME280;15525;45.568;5.448;2023-05-09T12:06:47;97798.13;;;25.56;41.97
28267;BME280;15525;45.568;5.448;2023-05-09T12:09:13;97784.88;;;25.32;41.25
28267;BME280;15525;45.568;5.448;2023-05-09T12:11:49;97776.84;;;25.46;40.98
28267;BME280;15525;45.568;5.448;2023-05-09T12:14:32;97793.41;;;25.56;41.43
28267;BME280;15525;45.568;5.448;2023-05-09T12:16:58;97802.97;;;25.69;41.57
28267;BME280;15525;45.568;5.448;2023-05-09T12:19:25;97777.44;;;25.62;41.85
28267;BME280;15525;45.568;5.448;2023-05-09T12:21:58;97781.81;;;25.66;42.20
28267;BME280;15525;45.568;5.448;2023-05-09T12:24:24;97766.63;;;25.43;42.89
28267;BME280;15525;45.568;5.448;2023-05-09T12:26:54;97803.47;;;25.45;43.05
28267;BME280;15525;45.568;5.448;2023-05-09T12:29:20;97791.13;;;25.32;43.48
28267;BME280;15525;45.568;5.448;2023-05-09T12:31:47;97794.88;;;25.21;43.46
28267;BME280;15525;45.568;5.448;2023-05-09T12:34:13;97809.31;;;24.92;43.66
28267;BME280;15525;45.568;5.448;2023-05-09T12:36:39;97787.81;;;24.68;43.53
28267;BME280;15525;45.568;5.448;2023-05-09T12:39:08;97807.97;;;24.82;43.43
28267;BME280;15525;45.568;5.448;2023-05-09T12:41:47;97797.66;;;25.24;43.79
28267;BME280;15525;45.568;5.448;2023-05-09T12:44:25;97787.56;;;25.28;43.48
28267;BME280;15525;45.568;5.448;2023-05-09T12:47:01;97768.31;;;24.99;43.33
28267;BME280;15525;45.568;5.448;2023-05-09T12:49:28;97778.22;;;25.07;43.54
28267;BME280;15525;45.568;5.448;2023-05-09T12:51:55;97789.50;;;25.02;43.91
28267;BME280;15525;45.568;5.448;2023-05-09T12:54:23;97786.09;;;24.60;44.38
28267;BME280;15525;45.568;5.448;2023-05-09T12:56:50;97764.28;;;24.44;44.67
28267;BME280;15525;45.568;5.448;2023-05-09T12:59:26;97766.25;;;24.21;45.93
28267;BME280;15525;45.568;5.448;2023-05-09T13:01:57;97791.63;;;23.99;46.38
28267;BME280;15525;45.568;5.448;2023-05-09T13:04:24;97788.47;;;23.97;47.23
28267;BME280;15525;45.568;5.448;2023-05-09T13:06:55;97791.69;;;23.84;48.72
28267;BME280;15525;45.568;5.448;2023-05-09T13:09:22;97792.56;;;23.69;48.83
28267;BME280;15525;45.568;5.448;2023-05-09T13:11:50;97786.16;;;23.61;49.52
28267;BME280;15525;45.568;5.448;2023-05-09T13:14:17;97802.66;;;23.30;50.36
28267;BME280;15525;45.568;5.448;2023-05-09T13:16:43;97808.22;;;23.03;51.64
28267;BME280;15525;45.568;5.448;2023-05-09T13:19:08;97795.19;;;23.12;51.48
28267;BME280;15525;45.568;5.448;2023-05-09T13:21:34;97797.22;;;23.15;51.66